createdAt,value
2019-03-25T00:00:21.933Z,0.00
2019-03-25T00:01:21.930Z,0.00
2019-03-25T00:02:21.914Z,0.00
2019-03-25T00:03:21.905Z,0.00
2019-03-25T00:04:21.890Z,0.00
2019-03-25T00:05:21.864Z,0.00
2019-03-25T00:06:21.878Z,0.00
2019-03-25T00:07:21.853Z,0.00
2019-03-25T00:08:21.844Z,0.00
2019-03-25T00:09:21.810Z,0.00
2019-03-25T00:10:21.809Z,0.00
2019-03-25T00:11:21.838Z,0.00
2019-03-25T00:12:21.803Z,0.00
2019-03-25T00:13:21.788Z,0.00
2019-03-25T00:14:21.780Z,0.00
2019-03-25T00:15:21.768Z,0.00
2019-03-25T00:16:21.750Z,0.00
2019-03-25T00:17:21.753Z,0.00
2019-03-25T00:18:21.734Z,0.00
2019-03-25T00:19:21.718Z,0.00
2019-03-25T00:20:21.711Z,0.00
2019-03-25T00:21:21.698Z,0.00
2019-03-25T00:22:21.696Z,0.00
2019-03-25T00:23:21.674Z,0.00
2019-03-25T00:24:21.667Z,0.00
2019-03-25T00:25:21.656Z,0.00
2019-03-25T00:26:21.638Z,0.00
2019-03-25T00:27:21.639Z,0.00
2019-03-25T00:28:21.610Z,0.00
2019-03-25T00:29:21.615Z,0.00
2019-03-25T00:30:21.599Z,0.00
2019-03-25T00:31:21.580Z,0.00
2019-03-25T00:32:21.611Z,0.00
2019-03-25T00:33:21.568Z,0.00
2019-03-25T00:34:21.555Z,0.00
2019-03-25T00:35:21.544Z,0.00
2019-03-25T00:36:21.532Z,0.00
2019-03-25T00:37:21.542Z,0.00
2019-03-25T00:38:21.501Z,0.00
2019-03-25T00:39:21.496Z,0.00
2019-03-25T00:40:21.492Z,0.00
2019-03-25T00:41:21.471Z,0.00
2019-03-25T00:42:21.472Z,0.00
2019-03-25T00:43:21.446Z,0.00
2019-03-25T00:44:21.435Z,0.00
2019-03-25T00:45:21.429Z,0.00
2019-03-25T00:46:21.425Z,0.00
2019-03-25T00:47:21.407Z,0.00
2019-03-25T00:48:21.411Z,0.00
2019-03-25T00:49:21.388Z,0.00
2019-03-25T00:50:21.363Z,0.00
2019-03-25T00:51:21.360Z,0.00
2019-03-25T00:52:21.373Z,0.00
2019-03-25T00:53:21.342Z,0.00
2019-03-25T00:54:21.335Z,0.00
2019-03-25T00:55:21.323Z,0.00
2019-03-25T00:56:21.304Z,0.00
2019-03-25T00:57:21.313Z,0.00
2019-03-25T00:58:21.296Z,0.00
2019-03-25T00:59:21.298Z,0.00
2019-03-25T01:00:21.268Z,0.00
2019-03-25T01:01:21.248Z,0.00
2019-03-25T01:02:21.302Z,0.00
2019-03-25T01:03:21.233Z,0.00
2019-03-25T01:04:21.230Z,0.00
2019-03-25T01:05:21.196Z,0.00
2019-03-25T01:06:21.218Z,0.00
2019-03-25T01:07:21.180Z,0.00
2019-03-25T01:08:21.187Z,0.00
2019-03-25T01:09:21.181Z,0.00
2019-03-25T01:10:21.173Z,0.00
2019-03-25T01:11:21.140Z,0.00
2019-03-25T01:12:21.140Z,0.00
2019-03-25T01:13:21.132Z,0.00
2019-03-25T01:14:21.122Z,0.00
2019-03-25T01:15:21.096Z,0.00
2019-03-25T01:16:21.102Z,0.00
2019-03-25T01:17:21.066Z,0.00
2019-03-25T01:18:21.092Z,0.00
2019-03-25T01:19:21.048Z,0.00
2019-03-25T01:20:21.091Z,0.00
2019-03-25T01:21:21.031Z,0.00
2019-03-25T01:22:21.022Z,0.00
2019-03-25T01:23:21.018Z,0.00
2019-03-25T01:24:21.011Z,0.00
2019-03-25T01:25:20.999Z,0.00
2019-03-25T01:26:20.982Z,0.00
2019-03-25T01:27:20.977Z,0.00
2019-03-25T01:28:20.977Z,0.00
2019-03-25T01:29:20.928Z,0.00
2019-03-25T01:30:20.927Z,0.00
2019-03-25T01:31:20.935Z,0.00
2019-03-25T01:32:20.907Z,0.00
2019-03-25T01:33:20.909Z,0.00
2019-03-25T01:34:20.896Z,0.00
2019-03-25T01:35:20.879Z,0.00
2019-03-25T01:36:20.870Z,0.00
2019-03-25T01:37:20.865Z,0.00
2019-03-25T01:38:20.877Z,0.00
2019-03-25T01:39:20.841Z,0.00
2019-03-25T01:40:20.815Z,0.00
2019-03-25T01:41:20.797Z,0.00
2019-03-25T01:42:20.794Z,0.00
2019-03-25T01:43:20.782Z,0.00
2019-03-25T01:44:20.788Z,0.00
2019-03-25T01:45:20.763Z,0.00
2019-03-25T01:46:20.743Z,0.00
2019-03-25T01:47:20.739Z,0.00
2019-03-25T01:48:20.742Z,0.00
2019-03-25T01:49:20.747Z,0.00
2019-03-25T01:50:20.711Z,0.00
2019-03-25T01:51:20.697Z,0.00
2019-03-25T01:52:20.683Z,0.00
2019-03-25T01:53:20.673Z,0.00
2019-03-25T01:54:20.673Z,0.00
2019-03-25T01:55:20.664Z,0.00
2019-03-25T01:56:20.704Z,0.00
2019-03-25T01:57:20.626Z,0.00
2019-03-25T01:58:20.627Z,0.00
2019-03-25T01:59:20.636Z,0.00
2019-03-25T02:00:20.602Z,0.00
2019-03-25T02:01:20.603Z,0.00
2019-03-25T02:02:20.581Z,0.00
2019-03-25T02:03:20.554Z,0.00
2019-03-25T02:04:20.575Z,0.00
2019-03-25T02:05:20.531Z,0.00
2019-03-25T02:06:20.546Z,0.00
2019-03-25T02:07:20.525Z,0.00
2019-03-25T02:08:20.499Z,0.00
2019-03-25T02:09:20.506Z,0.00
2019-03-25T02:10:20.489Z,0.00
2019-03-25T02:11:22.337Z,0.00
2019-03-25T02:12:20.453Z,0.00
2019-03-25T02:13:20.443Z,0.00
2019-03-25T02:14:20.455Z,0.00
2019-03-25T02:15:20.430Z,0.00
2019-03-25T02:16:20.412Z,0.00
2019-03-25T02:17:20.417Z,0.00
2019-03-25T02:18:20.394Z,0.00
2019-03-25T02:19:20.425Z,0.00
2019-03-25T02:20:26.301Z,0.00
2019-03-25T02:21:21.372Z,0.00
2019-03-25T02:22:20.351Z,0.00
2019-03-25T02:23:20.369Z,0.00
2019-03-25T02:24:20.352Z,0.00
2019-03-25T02:25:25.277Z,0.00
2019-03-25T02:26:21.331Z,0.00
2019-03-25T02:27:20.304Z,0.00
2019-03-25T02:28:20.285Z,0.00
2019-03-25T02:29:20.301Z,0.00
2019-03-25T02:30:20.270Z,0.00
2019-03-25T02:31:20.259Z,0.00
2019-03-25T02:32:20.244Z,0.00
2019-03-25T02:33:20.223Z,0.00
2019-03-25T02:34:20.242Z,0.00
2019-03-25T02:35:20.209Z,0.00
2019-03-25T02:36:20.210Z,0.00
2019-03-25T02:37:20.193Z,0.00
2019-03-25T02:38:20.181Z,0.00
2019-03-25T02:39:20.195Z,0.00
2019-03-25T02:40:20.148Z,0.00
2019-03-25T02:41:20.142Z,0.00
2019-03-25T02:42:20.159Z,0.00
2019-03-25T02:43:20.122Z,0.00
2019-03-25T02:44:20.126Z,0.00
2019-03-25T02:45:20.115Z,0.00
2019-03-25T02:46:20.092Z,0.00
2019-03-25T02:47:20.079Z,0.00
2019-03-25T02:48:20.068Z,0.00
2019-03-25T02:49:20.086Z,0.00
2019-03-25T02:50:20.047Z,0.00
2019-03-25T02:51:20.044Z,0.00
2019-03-25T02:52:20.022Z,0.00
2019-03-25T02:53:20.026Z,0.00
2019-03-25T02:54:20.038Z,0.00
2019-03-25T02:55:19.980Z,0.00
2019-03-25T02:56:19.974Z,0.00
2019-03-25T02:57:19.961Z,0.00
2019-03-25T02:58:19.967Z,0.00
2019-03-25T02:59:19.983Z,0.00
2019-03-25T03:00:19.936Z,0.00
2019-03-25T03:01:19.950Z,0.00
2019-03-25T03:02:19.959Z,0.00
2019-03-25T03:03:19.916Z,0.00
2019-03-25T03:04:19.908Z,0.00
2019-03-25T03:05:19.879Z,0.00
2019-03-25T03:06:19.882Z,0.00
2019-03-25T03:07:19.858Z,0.00
2019-03-25T03:08:19.854Z,0.00
2019-03-25T03:09:19.857Z,0.00
2019-03-25T03:10:19.824Z,0.00
2019-03-25T03:11:19.806Z,0.00
2019-03-25T03:12:19.796Z,0.00
2019-03-25T03:13:19.816Z,0.00
2019-03-25T03:14:19.783Z,0.00
2019-03-25T03:15:19.788Z,0.00
2019-03-25T03:16:19.756Z,0.00
2019-03-25T03:17:19.740Z,0.00
2019-03-25T03:18:19.735Z,0.00
2019-03-25T03:19:19.728Z,0.00
2019-03-25T03:20:19.733Z,0.00
2019-03-25T03:21:19.698Z,0.00
2019-03-25T03:22:19.691Z,0.00
2019-03-25T03:23:19.679Z,0.00
2019-03-25T03:24:19.779Z,0.00
2019-03-25T03:25:19.669Z,0.00
2019-03-25T03:26:19.633Z,0.00
2019-03-25T03:27:19.653Z,0.00
2019-03-25T03:28:19.632Z,0.00
2019-03-25T03:29:19.608Z,0.00
2019-03-25T03:30:19.625Z,0.00
2019-03-25T03:31:19.607Z,0.00
2019-03-25T03:32:19.735Z,0.00
2019-03-25T03:33:19.592Z,0.00
2019-03-25T03:34:19.624Z,0.00
2019-03-25T03:35:19.588Z,0.00
2019-03-25T03:36:19.568Z,0.00
2019-03-25T03:37:19.545Z,0.00
2019-03-25T03:38:19.598Z,0.00
2019-03-25T03:39:19.574Z,0.00
2019-03-25T03:40:19.548Z,0.00
2019-03-25T03:41:19.510Z,0.00
2019-03-25T03:42:19.623Z,0.00
2019-03-25T03:43:19.454Z,0.00
2019-03-25T03:44:19.444Z,0.00
2019-03-25T03:45:19.514Z,0.00
2019-03-25T03:46:19.427Z,0.00
2019-03-25T03:47:19.423Z,0.00
2019-03-25T03:48:19.396Z,0.00
2019-03-25T03:49:19.397Z,0.00
2019-03-25T03:50:19.396Z,0.00
2019-03-25T03:51:19.366Z,0.00
2019-03-25T03:52:19.361Z,0.00
2019-03-25T03:53:19.333Z,0.00
2019-03-25T03:54:19.331Z,0.00
2019-03-25T03:55:19.393Z,0.00
2019-03-25T03:56:19.314Z,0.00
2019-03-25T03:57:19.303Z,0.00
2019-03-25T03:58:19.308Z,0.00
2019-03-25T03:59:19.270Z,0.00
2019-03-25T04:00:19.292Z,0.00
2019-03-25T04:01:19.253Z,0.00
2019-03-25T04:02:19.244Z,0.00
2019-03-25T04:03:19.233Z,0.00
2019-03-25T04:04:19.250Z,0.00
2019-03-25T04:05:19.224Z,0.00
2019-03-25T04:06:19.224Z,0.00
2019-03-25T04:07:19.187Z,0.00
2019-03-25T04:08:19.185Z,0.00
2019-03-25T04:09:19.165Z,0.00
2019-03-25T04:10:19.182Z,0.00
2019-03-25T04:11:19.134Z,0.00
2019-03-25T04:12:19.144Z,0.00
2019-03-25T04:13:19.121Z,0.00
2019-03-25T04:14:19.118Z,0.00
2019-03-25T04:15:19.113Z,0.00
2019-03-25T04:16:19.100Z,0.00
2019-03-25T04:17:19.077Z,0.00
2019-03-25T04:18:19.071Z,0.00
2019-03-25T04:19:19.050Z,0.00
2019-03-25T04:20:19.044Z,0.00
2019-03-25T04:21:19.050Z,0.00
2019-03-25T04:22:19.044Z,0.00
2019-03-25T04:23:19.011Z,0.00
2019-03-25T04:24:18.996Z,0.00
2019-03-25T04:25:18.978Z,0.00
2019-03-25T04:26:28.540Z,0.00
2019-03-25T04:27:19.961Z,0.00
2019-03-25T04:28:18.948Z,0.00
2019-03-25T04:29:18.958Z,0.00
2019-03-25T04:30:18.931Z,0.00
2019-03-25T04:31:18.940Z,0.00
2019-03-25T04:32:18.901Z,0.00
2019-03-25T04:33:18.897Z,0.00
2019-03-25T04:34:18.879Z,0.00
2019-03-25T04:35:18.879Z,0.00
2019-03-25T04:36:18.886Z,0.00
2019-03-25T04:37:18.857Z,0.00
2019-03-25T04:38:18.848Z,4.00
2019-03-25T04:39:18.824Z,0.00
2019-03-25T04:40:18.819Z,0.00
2019-03-25T04:41:18.830Z,4.00
2019-03-25T04:42:18.817Z,0.00
2019-03-25T04:43:18.798Z,4.00
2019-03-25T04:44:18.808Z,4.00
2019-03-25T04:45:18.759Z,4.00
2019-03-25T04:46:18.775Z,4.00
2019-03-25T04:47:18.754Z,8.00
2019-03-25T04:48:18.743Z,8.00
2019-03-25T04:49:18.748Z,8.00
2019-03-25T04:50:18.715Z,8.00
2019-03-25T04:51:18.720Z,12.00
2019-03-25T04:52:18.700Z,12.00
2019-03-25T04:53:18.675Z,12.00
2019-03-25T04:54:18.675Z,16.00
2019-03-25T04:55:18.667Z,16.00
2019-03-25T04:56:18.652Z,16.00
2019-03-25T04:57:18.657Z,16.00
2019-03-25T04:58:18.618Z,20.00
2019-03-25T04:59:18.605Z,20.00
2019-03-25T05:00:18.597Z,16.00
2019-03-25T05:01:18.592Z,16.00
2019-03-25T05:02:18.611Z,12.00
2019-03-25T05:03:18.578Z,16.00
2019-03-25T05:04:18.570Z,20.00
2019-03-25T05:05:18.549Z,20.00
2019-03-25T05:06:18.543Z,16.00
2019-03-25T05:07:18.540Z,16.00
2019-03-25T05:08:18.514Z,16.00
2019-03-25T05:09:18.494Z,12.00
2019-03-25T05:10:18.482Z,12.00
2019-03-25T05:11:30.073Z,20.00
2019-03-25T05:12:19.485Z,20.00
2019-03-25T05:13:18.466Z,24.00
2019-03-25T05:14:18.458Z,32.00
2019-03-25T05:15:18.436Z,36.00
2019-03-25T05:16:18.696Z,44.00
2019-03-25T05:17:18.437Z,44.00
2019-03-25T05:18:18.421Z,40.00
2019-03-25T05:19:18.384Z,40.00
2019-03-25T05:20:18.384Z,48.00
2019-03-25T05:21:18.374Z,56.00
2019-03-25T05:22:18.388Z,60.00
2019-03-25T05:23:18.336Z,64.00
2019-03-25T05:24:18.332Z,60.00
2019-03-25T05:25:18.334Z,56.00
2019-03-25T05:26:18.323Z,64.00
2019-03-25T05:27:18.337Z,76.00
2019-03-25T05:28:18.291Z,84.00
2019-03-25T05:29:18.286Z,68.00
2019-03-25T05:30:18.266Z,72.00
2019-03-25T05:31:18.268Z,80.00
2019-03-25T05:32:18.266Z,68.00
2019-03-25T05:33:18.242Z,84.00
2019-03-25T05:34:18.229Z,80.00
2019-03-25T05:35:18.214Z,72.00
2019-03-25T05:36:18.200Z,60.00
2019-03-25T05:37:18.207Z,56.00
2019-03-25T05:38:18.178Z,64.00
2019-03-25T05:39:18.185Z,80.00
2019-03-25T05:40:18.161Z,64.00
2019-03-25T05:41:18.139Z,84.00
2019-03-25T05:42:18.146Z,128.00
2019-03-25T05:43:18.119Z,188.00
2019-03-25T05:44:18.111Z,264.00
2019-03-25T05:45:18.118Z,264.00
2019-03-25T05:46:18.100Z,224.00
2019-03-25T05:47:18.109Z,208.00
2019-03-25T05:48:18.085Z,216.00
2019-03-25T05:49:18.056Z,196.00
2019-03-25T05:50:18.048Z,192.00
2019-03-25T05:51:18.049Z,176.00
2019-03-25T05:52:18.029Z,112.00
2019-03-25T05:53:18.031Z,88.00
2019-03-25T05:54:18.015Z,68.00
2019-03-25T05:55:17.986Z,56.00
2019-03-25T05:56:17.979Z,60.00
2019-03-25T05:57:17.967Z,52.00
2019-03-25T05:58:17.994Z,44.00
2019-03-25T05:59:17.953Z,44.00
2019-03-25T06:00:17.931Z,40.00
2019-03-25T06:01:17.951Z,44.00
2019-03-25T06:02:17.934Z,52.00
2019-03-25T06:03:17.915Z,60.00
2019-03-25T06:04:17.893Z,76.00
2019-03-25T06:05:17.882Z,100.00
2019-03-25T06:06:17.885Z,128.00
2019-03-25T06:07:17.853Z,152.00
2019-03-25T06:08:17.877Z,160.00
2019-03-25T06:09:17.836Z,152.00
2019-03-25T06:10:17.827Z,220.00
2019-03-25T06:11:17.832Z,252.00
2019-03-25T06:12:17.792Z,260.00
2019-03-25T06:13:17.806Z,264.00
2019-03-25T06:14:17.786Z,204.00
2019-03-25T06:15:17.775Z,172.00
2019-03-25T06:16:17.767Z,176.00
2019-03-25T06:17:17.745Z,144.00
2019-03-25T06:18:20.310Z,128.00
2019-03-25T06:19:17.719Z,108.00
2019-03-25T06:20:17.707Z,116.00
2019-03-25T06:21:17.697Z,124.00
2019-03-25T06:22:17.702Z,120.00
2019-03-25T06:23:17.688Z,96.00
2019-03-25T06:24:17.663Z,116.00
2019-03-25T06:25:17.662Z,128.00
2019-03-25T06:26:17.649Z,168.00
2019-03-25T06:27:17.642Z,144.00
2019-03-25T06:28:17.654Z,140.00
2019-03-25T06:29:17.620Z,144.00
2019-03-25T06:30:17.603Z,140.00
2019-03-25T06:31:17.598Z,132.00
2019-03-25T06:32:17.593Z,164.00
2019-03-25T06:33:17.588Z,156.00
2019-03-25T06:34:17.578Z,156.00
2019-03-25T06:35:17.542Z,136.00
2019-03-25T06:36:17.539Z,148.00
2019-03-25T06:37:17.520Z,124.00
2019-03-25T06:38:17.540Z,112.00
2019-03-25T06:39:17.514Z,112.00
2019-03-25T06:40:17.523Z,112.00
2019-03-25T06:41:17.476Z,136.00
2019-03-25T06:42:17.483Z,116.00
2019-03-25T06:43:17.472Z,120.00
2019-03-25T06:44:17.453Z,120.00
2019-03-25T06:45:17.455Z,120.00
2019-03-25T06:46:17.437Z,132.00
2019-03-25T06:47:17.417Z,120.00
2019-03-25T06:48:17.414Z,124.00
2019-03-25T06:49:17.444Z,112.00
2019-03-25T06:50:17.388Z,156.00
2019-03-25T06:51:17.372Z,160.00
2019-03-25T06:52:17.357Z,144.00
2019-03-25T06:53:17.375Z,144.00
2019-03-25T06:54:17.336Z,168.00
2019-03-25T06:55:17.397Z,188.00
2019-03-25T06:56:17.311Z,188.00
2019-03-25T06:57:25.403Z,204.00
2019-03-25T06:58:18.309Z,204.00
2019-03-25T06:59:17.281Z,216.00
2019-03-25T07:00:17.282Z,220.00
2019-03-25T07:01:17.258Z,216.00
2019-03-25T07:02:17.256Z,196.00
2019-03-25T07:03:17.266Z,200.00
2019-03-25T07:04:17.239Z,192.00
2019-03-25T07:05:17.206Z,204.00
2019-03-25T07:06:17.208Z,184.00
2019-03-25T07:07:17.197Z,188.00
2019-03-25T07:08:17.196Z,192.00
2019-03-25T07:09:18.707Z,188.00
2019-03-25T07:10:17.221Z,176.00
2019-03-25T07:11:17.147Z,176.00
2019-03-25T07:12:17.132Z,228.00
2019-03-25T07:13:17.126Z,212.00
2019-03-25T07:14:17.140Z,216.00
2019-03-25T07:15:17.093Z,252.00
2019-03-25T07:16:17.083Z,272.00
2019-03-25T07:17:17.077Z,256.00
2019-03-25T07:18:17.073Z,264.00
2019-03-25T07:19:17.087Z,372.00
2019-03-25T07:20:17.051Z,336.00
2019-03-25T07:21:17.030Z,308.00
2019-03-25T07:22:17.033Z,316.00
2019-03-25T07:23:17.082Z,260.00
2019-03-25T07:24:17.042Z,260.00
2019-03-25T07:25:17.069Z,300.00
2019-03-25T07:26:16.990Z,296.00
2019-03-25T07:27:16.960Z,260.00
2019-03-25T07:28:16.960Z,360.00
2019-03-25T07:29:16.943Z,352.00
2019-03-25T07:30:16.950Z,352.00
2019-03-25T07:31:16.917Z,356.00
2019-03-25T07:32:16.916Z,348.00
2019-03-25T07:33:16.894Z,456.00
2019-03-25T07:34:16.901Z,480.00
2019-03-25T07:35:16.882Z,576.00
2019-03-25T07:36:16.857Z,480.00
2019-03-25T07:37:16.850Z,508.00
2019-03-25T07:38:16.836Z,460.00
2019-03-25T07:39:16.837Z,456.00
2019-03-25T07:40:16.832Z,560.00
2019-03-25T07:41:17.209Z,664.00
2019-03-25T07:42:16.788Z,724.00
2019-03-25T07:43:16.806Z,732.00
2019-03-25T07:44:16.773Z,600.00
2019-03-25T07:45:16.773Z,684.00
2019-03-25T07:46:16.775Z,596.00
2019-03-25T07:47:16.742Z,580.00
2019-03-25T07:48:16.729Z,604.00
2019-03-25T07:49:16.735Z,700.00
2019-03-25T07:50:16.783Z,636.00
2019-03-25T07:51:16.685Z,792.00
2019-03-25T07:52:16.685Z,640.00
2019-03-25T07:53:16.695Z,708.00
2019-03-25T07:54:16.666Z,808.00
2019-03-25T07:55:16.674Z,572.00
2019-03-25T07:56:16.643Z,524.00
2019-03-25T07:57:16.642Z,516.00
2019-03-25T07:58:16.716Z,644.00
2019-03-25T07:59:17.547Z,772.00
2019-03-25T08:00:16.642Z,868.00
2019-03-25T08:01:16.578Z,900.00
2019-03-25T08:02:16.594Z,960.00
2019-03-25T08:03:16.576Z,1072.00
2019-03-25T08:04:16.573Z,844.00
2019-03-25T08:05:16.559Z,788.00
2019-03-25T08:06:16.528Z,796.00
2019-03-25T08:07:16.533Z,740.00
2019-03-25T08:08:16.500Z,800.00
2019-03-25T08:09:16.495Z,644.00
2019-03-25T08:10:16.481Z,884.00
2019-03-25T08:11:16.506Z,1248.00
2019-03-25T08:12:16.498Z,1116.00
2019-03-25T08:13:16.532Z,1432.00
2019-03-25T08:14:16.439Z,1064.00
2019-03-25T08:15:16.434Z,936.00
2019-03-25T08:16:16.448Z,800.00
2019-03-25T08:17:16.435Z,652.00
2019-03-25T08:18:16.402Z,556.00
2019-03-25T08:19:16.375Z,692.00
2019-03-25T08:20:16.377Z,972.00
2019-03-25T08:21:16.374Z,808.00
2019-03-25T08:22:16.366Z,996.00
2019-03-25T08:23:16.383Z,928.00
2019-03-25T08:24:16.334Z,1432.00
2019-03-25T08:25:16.314Z,1724.00
2019-03-25T08:26:16.315Z,1836.00
2019-03-25T08:27:16.296Z,1728.00
2019-03-25T08:28:16.287Z,1588.00
2019-03-25T08:29:16.278Z,1772.00
2019-03-25T08:30:16.277Z,1728.00
2019-03-25T08:31:16.275Z,2288.00
2019-03-25T08:32:16.240Z,2568.00
2019-03-25T08:33:16.226Z,2452.00
2019-03-25T08:34:16.223Z,2396.00
2019-03-25T08:35:16.216Z,2276.00
2019-03-25T08:36:16.250Z,2448.00
2019-03-25T08:37:16.210Z,2280.00
2019-03-25T08:38:16.198Z,2120.00
2019-03-25T08:39:16.168Z,1960.00
2019-03-25T08:40:16.162Z,2108.00
2019-03-25T08:41:16.163Z,1956.00
2019-03-25T08:42:16.127Z,1360.00
2019-03-25T08:43:16.135Z,888.00
2019-03-25T08:44:16.139Z,736.00
2019-03-25T08:45:16.106Z,724.00
2019-03-25T08:46:16.124Z,696.00
2019-03-25T08:47:16.079Z,836.00
2019-03-25T08:48:16.070Z,1168.00
2019-03-25T08:49:16.050Z,1620.00
2019-03-25T08:50:16.052Z,1892.00
2019-03-25T08:51:16.046Z,1496.00
2019-03-25T08:52:16.013Z,1948.00
2019-03-25T08:53:16.013Z,2052.00
2019-03-25T08:54:16.027Z,2040.00
2019-03-25T08:55:15.997Z,1888.00
2019-03-25T08:56:15.995Z,1664.00
2019-03-25T08:57:15.971Z,1900.00
2019-03-25T08:58:15.944Z,1844.00
2019-03-25T08:59:15.955Z,1652.00
2019-03-25T09:00:15.925Z,1624.00
2019-03-25T09:01:15.931Z,1228.00
2019-03-25T09:02:15.937Z,1288.00
2019-03-25T09:03:15.922Z,1248.00
2019-03-25T09:04:15.901Z,1112.00
2019-03-25T09:05:15.881Z,1172.00
2019-03-25T09:06:15.875Z,1000.00
2019-03-25T09:07:15.844Z,904.00
2019-03-25T09:08:15.841Z,816.00
2019-03-25T09:09:15.845Z,908.00
2019-03-25T09:10:15.830Z,1044.00
2019-03-25T09:11:15.839Z,1252.00
2019-03-25T09:12:15.802Z,1368.00
2019-03-25T09:13:15.783Z,1224.00
2019-03-25T09:14:15.780Z,1156.00
2019-03-25T09:15:15.786Z,1220.00
2019-03-25T09:16:15.778Z,912.00
2019-03-25T09:17:15.738Z,1020.00
2019-03-25T09:18:15.734Z,1032.00
2019-03-25T09:19:15.725Z,1096.00
2019-03-25T09:20:15.723Z,1040.00
2019-03-25T09:21:15.712Z,1152.00
2019-03-25T09:22:15.704Z,1156.00
2019-03-25T09:23:15.676Z,1060.00
2019-03-25T09:24:15.656Z,1356.00
2019-03-25T09:25:15.652Z,1520.00
2019-03-25T09:26:15.660Z,1572.00
2019-03-25T09:27:15.625Z,1792.00
2019-03-25T09:28:24.182Z,1920.00
2019-03-25T09:29:16.604Z,1552.00
2019-03-25T09:30:15.586Z,1428.00
2019-03-25T09:31:15.615Z,1688.00
2019-03-25T09:32:15.581Z,1172.00
2019-03-25T09:33:15.570Z,1172.00
2019-03-25T09:34:15.557Z,968.00
2019-03-25T09:35:15.537Z,852.00
2019-03-25T09:36:15.542Z,956.00
2019-03-25T09:37:15.572Z,900.00
2019-03-25T09:38:15.523Z,1028.00
2019-03-25T09:39:15.501Z,928.00
2019-03-25T09:40:15.477Z,1000.00
2019-03-25T09:41:15.505Z,928.00
2019-03-25T09:42:15.467Z,1064.00
2019-03-25T09:43:15.450Z,1124.00
2019-03-25T09:44:15.460Z,1176.00
2019-03-25T09:45:15.437Z,1628.00
2019-03-25T09:46:15.434Z,1876.00
2019-03-25T09:47:15.410Z,2088.00
2019-03-25T09:48:15.407Z,2016.00
2019-03-25T09:49:15.383Z,1860.00
2019-03-25T09:50:15.374Z,1780.00
2019-03-25T09:51:15.369Z,1700.00
2019-03-25T09:52:15.370Z,1884.00
2019-03-25T09:53:15.351Z,1876.00
2019-03-25T09:54:15.329Z,1648.00
2019-03-25T09:55:16.587Z,1356.00
2019-03-25T09:56:15.349Z,1292.00
2019-03-25T09:57:15.306Z,1100.00
2019-03-25T09:58:15.283Z,1012.00
2019-03-25T09:59:15.283Z,976.00
2019-03-25T10:00:15.261Z,796.00
2019-03-25T10:01:15.257Z,648.00
2019-03-25T10:02:15.251Z,536.00
2019-03-25T10:03:15.233Z,496.00
2019-03-25T10:04:15.294Z,636.00
2019-03-25T10:05:15.204Z,708.00
2019-03-25T10:06:15.200Z,720.00
2019-03-25T10:07:15.210Z,728.00
2019-03-25T10:08:15.191Z,852.00
2019-03-25T10:09:15.171Z,944.00
2019-03-25T10:10:15.171Z,892.00
2019-03-25T10:11:15.135Z,1088.00
2019-03-25T10:12:15.165Z,1256.00
2019-03-25T10:13:15.129Z,1476.00
2019-03-25T10:14:15.111Z,1892.00
2019-03-25T10:15:15.110Z,2092.00
2019-03-25T10:16:15.089Z,2084.00
2019-03-25T10:17:15.085Z,2184.00
2019-03-25T10:18:15.060Z,2372.00
2019-03-25T10:19:15.050Z,2288.00
2019-03-25T10:20:15.050Z,2376.00
2019-03-25T10:21:15.033Z,2388.00
2019-03-25T10:22:15.039Z,2508.00
2019-03-25T10:23:15.018Z,2704.00
2019-03-25T10:24:15.173Z,2692.00
2019-03-25T10:25:14.988Z,2780.00
2019-03-25T10:26:14.968Z,2780.00
2019-03-25T10:27:14.994Z,2828.00
2019-03-25T10:28:14.944Z,2720.00
2019-03-25T10:29:14.946Z,2476.00
2019-03-25T10:30:14.925Z,2036.00
2019-03-25T10:31:17.205Z,2076.00
2019-03-25T10:32:14.935Z,1968.00
2019-03-25T10:33:14.886Z,2268.00
2019-03-25T10:34:14.878Z,2012.00
2019-03-25T10:35:14.877Z,1728.00
2019-03-25T10:36:14.854Z,1472.00
2019-03-25T10:37:14.874Z,1224.00
2019-03-25T10:38:19.398Z,1068.00
2019-03-25T10:39:15.842Z,1008.00
2019-03-25T10:40:14.828Z,884.00
2019-03-25T10:41:14.812Z,1416.00
2019-03-25T10:42:14.815Z,1952.00
2019-03-25T10:43:14.808Z,2136.00
2019-03-25T10:44:14.784Z,2284.00
2019-03-25T10:45:14.770Z,2312.00
2019-03-25T10:46:14.768Z,2064.00
2019-03-25T10:47:14.768Z,1648.00
2019-03-25T10:48:14.733Z,1840.00
2019-03-25T10:49:16.200Z,2196.00
2019-03-25T10:50:14.707Z,2432.00
2019-03-25T10:51:14.706Z,2260.00
2019-03-25T10:52:14.707Z,1832.00
2019-03-25T10:53:14.675Z,2216.00
2019-03-25T10:54:14.665Z,2500.00
2019-03-25T10:55:14.646Z,2416.00
2019-03-25T10:56:14.644Z,2564.00
2019-03-25T10:57:14.663Z,2932.00
2019-03-25T10:58:14.619Z,3100.00
2019-03-25T10:59:14.611Z,3068.00
2019-03-25T11:00:14.601Z,2960.00
2019-03-25T11:01:14.588Z,2836.00
2019-03-25T11:02:14.630Z,2672.00
2019-03-25T11:03:14.566Z,2684.00
2019-03-25T11:04:14.555Z,2476.00
2019-03-25T11:05:14.543Z,1712.00
2019-03-25T11:06:14.529Z,2000.00
2019-03-25T11:07:14.557Z,1904.00
2019-03-25T11:08:14.520Z,1948.00
2019-03-25T11:09:14.513Z,1840.00
2019-03-25T11:10:14.497Z,1876.00
2019-03-25T11:11:14.479Z,1624.00
2019-03-25T11:12:14.490Z,1508.00
2019-03-25T11:13:14.448Z,1864.00
2019-03-25T11:14:14.439Z,2204.00
2019-03-25T11:15:14.440Z,2316.00
2019-03-25T11:16:14.421Z,1792.00
2019-03-25T11:17:14.445Z,1464.00
2019-03-25T11:18:14.388Z,1444.00
2019-03-25T11:19:14.401Z,1192.00
2019-03-25T11:20:14.406Z,1220.00
2019-03-25T11:21:14.364Z,1424.00
2019-03-25T11:22:14.378Z,1936.00
2019-03-25T11:23:14.342Z,2164.00
2019-03-25T11:24:15.245Z,2128.00
2019-03-25T11:25:14.311Z,1952.00
2019-03-25T11:26:14.307Z,2120.00
2019-03-25T11:27:14.323Z,2204.00
2019-03-25T11:28:14.295Z,1808.00
2019-03-25T11:29:14.282Z,1756.00
2019-03-25T11:30:14.269Z,1808.00
2019-03-25T11:31:14.262Z,1968.00
2019-03-25T11:32:14.269Z,1664.00
2019-03-25T11:33:14.242Z,1332.00
2019-03-25T11:34:14.232Z,1068.00
2019-03-25T11:35:14.215Z,1028.00
2019-03-25T11:36:14.194Z,948.00
2019-03-25T11:37:14.210Z,904.00
2019-03-25T11:38:14.181Z,900.00
2019-03-25T11:39:14.162Z,936.00
2019-03-25T11:40:14.162Z,856.00
2019-03-25T11:41:14.143Z,872.00
2019-03-25T11:42:14.156Z,976.00
2019-03-25T11:43:14.120Z,992.00
2019-03-25T11:44:14.106Z,1000.00
2019-03-25T11:45:14.122Z,1004.00
2019-03-25T11:46:14.087Z,1012.00
2019-03-25T11:47:14.108Z,1020.00
2019-03-25T11:48:14.072Z,1036.00
2019-03-25T11:49:14.046Z,1056.00
2019-03-25T11:50:14.043Z,1068.00
2019-03-25T11:51:14.025Z,1068.00
2019-03-25T11:52:14.049Z,1064.00
2019-03-25T11:53:14.008Z,1088.00
2019-03-25T11:54:13.988Z,1132.00
2019-03-25T11:55:13.980Z,1172.00
2019-03-25T11:56:13.978Z,1232.00
2019-03-25T11:57:13.969Z,1264.00
2019-03-25T11:58:13.950Z,1292.00
2019-03-25T11:59:18.677Z,1232.00
2019-03-25T12:00:14.937Z,1160.00
2019-03-25T12:01:13.919Z,1140.00
2019-03-25T12:02:17.681Z,1208.00
2019-03-25T12:03:13.892Z,1340.00
2019-03-25T12:04:13.880Z,1632.00
2019-03-25T12:05:13.878Z,2364.00
2019-03-25T12:06:13.879Z,2780.00
2019-03-25T12:07:13.880Z,2348.00
2019-03-25T12:08:13.840Z,2460.00
2019-03-25T12:09:13.835Z,2088.00
2019-03-25T12:10:13.820Z,2028.00
2019-03-25T12:11:13.802Z,2440.00
2019-03-25T12:12:13.825Z,2056.00
2019-03-25T12:13:13.791Z,2360.00
2019-03-25T12:14:13.767Z,2288.00
2019-03-25T12:15:13.774Z,2368.00
2019-03-25T12:16:13.757Z,2564.00
2019-03-25T12:17:13.765Z,2540.00
2019-03-25T12:18:13.735Z,2516.00
2019-03-25T12:19:13.739Z,2492.00
2019-03-25T12:20:13.713Z,2612.00
2019-03-25T12:21:13.698Z,2284.00
2019-03-25T12:22:13.700Z,1900.00
2019-03-25T12:23:13.676Z,1424.00
2019-03-25T12:24:13.694Z,1272.00
2019-03-25T12:25:13.640Z,1568.00
2019-03-25T12:26:13.645Z,2084.00
2019-03-25T12:27:13.674Z,2056.00
2019-03-25T12:28:13.620Z,1996.00
2019-03-25T12:29:13.624Z,1536.00
2019-03-25T12:30:13.604Z,1184.00
2019-03-25T12:31:13.609Z,1204.00
2019-03-25T12:32:13.579Z,1120.00
2019-03-25T12:33:13.604Z,988.00
2019-03-25T12:34:13.656Z,1072.00
2019-03-25T12:35:13.635Z,1032.00
2019-03-25T12:36:13.567Z,960.00
2019-03-25T12:37:13.519Z,1024.00
2019-03-25T12:38:13.567Z,1056.00
2019-03-25T12:39:13.506Z,1004.00
2019-03-25T12:40:13.529Z,960.00
2019-03-25T12:41:13.516Z,936.00